Terminal Aerodrome Forecast
Issued by NWS

Home | Current Version | Previous Version | Text Only | Print | Product List | Glossary Off
Versions: 1 2 3 4 5 6 7 8 9 10 11 12 13 14 15 16 17 18

000
FTUS41 KCLE 281138
TAFFDY
TAF
KFDY 281138Z 2812/2912 07010KT P6SM VCSH OVC018
     FM281400 06012KT P6SM -SHRA OVC012
     FM281600 05010KT P6SM OVC009
     FM282000 06012KT P6SM OVC015
     FM290200 03006KT 5SM BR VCSH OVC009
     FM290500 05006KT 2SM BR OVC005=

USA.gov is the U.S. government's official web portal to all federal, state and local government web resources and services.